sensor_id;sensor_type;location;lat;lon;timestamp;temperature;humidity
6114;DHT22;3087;48.392;10.836;2024-01-10T00:01:14;-5.10;98.70
6114;DHT22;3087;48.392;10.836;2024-01-10T00:03:39;-5.20;98.70
6114;DHT22;3087;48.392;10.836;2024-01-10T00:06:05;-4.10;99.10
6114;DHT22;3087;48.392;10.836;2024-01-10T00:08:31;-5.20;98.90
6114;DHT22;3087;48.392;10.836;2024-01-10T00:10:57;-5.20;98.80
6114;DHT22;3087;48.392;10.836;2024-01-10T00:13:22;-5.20;98.80
6114;DHT22;3087;48.392;10.836;2024-01-10T00:15:48;-5.20;99.00
6114;DHT22;3087;48.392;10.836;2024-01-10T00:18:14;-5.20;99.00
6114;DHT22;3087;48.392;10.836;2024-01-10T00:21:04;-5.20;98.90
6114;DHT22;3087;48.392;10.836;2024-01-10T00:23:29;-5.20;98.90
6114;DHT22;3087;48.392;10.836;2024-01-10T00:25:55;-5.10;98.70
6114;DHT22;3087;48.392;10.836;2024-01-10T00:28:20;-5.20;98.90
6114;DHT22;3087;48.392;10.836;2024-01-10T00:30:46;-5.10;98.90
6114;DHT22;3087;48.392;10.836;2024-01-10T00:33:13;-5.10;98.80
6114;DHT22;3087;48.392;10.836;2024-01-10T00:35:39;-5.20;98.90
6114;DHT22;3087;48.392;10.836;2024-01-10T00:38:05;-5.10;98.80
6114;DHT22;3087;48.392;10.836;2024-01-10T00:40:30;-5.10;98.80
6114;DHT22;3087;48.392;10.836;2024-01-10T00:42:56;-5.00;98.90
6114;DHT22;3087;48.392;10.836;2024-01-10T00:45:22;-5.20;98.70
6114;DHT22;3087;48.392;10.836;2024-01-10T00:47:50;-5.20;98.70
6114;DHT22;3087;48.392;10.836;2024-01-10T00:50:16;-5.10;98.80
6114;DHT22;3087;48.392;10.836;2024-01-10T00:52:45;-5.10;98.80
6114;DHT22;3087;48.392;10.836;2024-01-10T00:55:11;-5.20;98.90
6114;DHT22;3087;48.392;10.836;2024-01-10T00:57:37;-5.20;99.00
6114;DHT22;3087;48.392;10.836;2024-01-10T01:00:04;-5.20;99.10
6114;DHT22;3087;48.392;10.836;2024-01-10T01:02:30;-5.20;99.20
6114;DHT22;3087;48.392;10.836;2024-01-10T01:04:56;-5.20;99.20
6114;DHT22;3087;48.392;10.836;2024-01-10T01:07:21;-5.20;99.20
6114;DHT22;3087;48.392;10.836;2024-01-10T01:09:47;-5.00;99.10
6114;DHT22;3087;48.392;10.836;2024-01-10T01:12:12;-5.00;99.20
6114;DHT22;3087;48.392;10.836;2024-01-10T01:14:38;-5.00;99.30
6114;DHT22;3087;48.392;10.836;2024-01-10T01:17:03;-4.90;99.40
6114;DHT22;3087;48.392;10.836;2024-01-10T01:19:29;-4.80;98.80
6114;DHT22;3087;48.392;10.836;2024-01-10T01:21:54;-4.90;99.00
6114;DHT22;3087;48.392;10.836;2024-01-10T01:24:20;-4.90;98.90
6114;DHT22;3087;48.392;10.836;2024-01-10T01:26:46;-5.10;99.00
6114;DHT22;3087;48.392;10.836;2024-01-10T01:29:11;-5.20;99.10
6114;DHT22;3087;48.392;10.836;2024-01-10T01:31:37;-5.20;99.20
6114;DHT22;3087;48.392;10.836;2024-01-10T01:34:03;-5.20;99.40
6114;DHT22;3087;48.392;10.836;2024-01-10T01:36:29;-5.20;99.30
6114;DHT22;3087;48.392;10.836;2024-01-10T01:38:54;-5.20;99.40
6114;DHT22;3087;48.392;10.836;2024-01-10T01:41:20;-5.30;99.60
6114;DHT22;3087;48.392;10.836;2024-01-10T01:43:46;-5.30;99.70
6114;DHT22;3087;48.392;10.836;2024-01-10T01:46:12;-5.40;99.60
6114;DHT22;3087;48.392;10.836;2024-01-10T01:48:38;-5.40;99.90
6114;DHT22;3087;48.392;10.836;2024-01-10T01:51:07;-5.30;99.70
6114;DHT22;3087;48.392;10.836;2024-01-10T01:53:37;-5.40;99.70
6114;DHT22;3087;48.392;10.836;2024-01-10T01:56:08;-5.40;99.70
6114;DHT22;3087;48.392;10.836;2024-01-10T01:58:35;-5.50;99.90
6114;DHT22;3087;48.392;10.836;2024-01-10T02:01:02;-5.50;99.90
6114;DHT22;3087;48.392;10.836;2024-01-10T02:03:28;-5.50;99.90
6114;DHT22;3087;48.392;10.836;2024-01-10T02:05:54;-5.50;99.90
6114;DHT22;3087;48.392;10.836;2024-01-10T02:08:20;-5.40;99.90
6114;DHT22;3087;48.392;10.836;2024-01-10T02:10:46;-5.40;99.90
6114;DHT22;3087;48.392;10.836;2024-01-10T02:13:11;-5.40;99.90
6114;DHT22;3087;48.392;10.836;2024-01-10T02:15:38;-5.40;99.90
6114;DHT22;3087;48.392;10.836;2024-01-10T02:18:04;-5.50;99.90
6114;DHT22;3087;48.392;10.836;2024-01-10T02:20:31;-5.50;99.90
6114;DHT22;3087;48.392;10.836;2024-01-10T02:22:57;-5.50;99.90
6114;DHT22;3087;48.392;10.836;2024-01-10T02:25:22;-5.50;99.90
6114;DHT22;3087;48.392;10.836;2024-01-10T02:27:48;-5.50;99.90
6114;DHT22;3087;48.392;10.836;2024-01-10T02:30:14;-5.50;99.90
6114;DHT22;3087;48.392;10.836;2024-01-10T02:32:40;-5.40;99.90
6114;DHT22;3087;48.392;10.836;2024-01-10T02:35:06;-5.40;99.90
6114;DHT22;3087;48.392;10.836;2024-01-10T02:37:32;-5.40;99.90
6114;DHT22;3087;48.392;10.836;2024-01-10T02:39:57;-5.30;99.90
6114;DHT22;3087;48.392;10.836;2024-01-10T02:42:23;-5.20;99.90
6114;DHT22;3087;48.392;10.836;2024-01-10T02:44:48;-5.20;99.90
6114;DHT22;3087;48.392;10.836;2024-01-10T02:47:14;-5.20;99.90
6114;DHT22;3087;48.392;10.836;2024-01-10T02:49:40;-5.10;99.90
6114;DHT22;3087;48.392;10.836;2024-01-10T02:52:06;-5.10;99.90
6114;DHT22;3087;48.392;10.836;2024-01-10T02:54:31;-5.10;99.90
6114;DHT22;3087;48.392;10.836;2024-01-10T02:56:57;-5.00;99.90
6114;DHT22;3087;48.392;10.836;2024-01-10T02:59:22;-5.00;99.90
6114;DHT22;3087;48.392;10.836;2024-01-10T03:01:48;-5.00;99.90
6114;DHT22;3087;48.392;10.836;2024-01-10T03:04:14;-4.90;99.90
6114;DHT22;3087;48.392;10.836;2024-01-10T03:06:39;-4.50;99.90
6114;DHT22;3087;48.392;10.836;2024-01-10T03:09:05;-4.80;99.90
6114;DHT22;3087;48.392;10.836;2024-01-10T03:11:30;-4.80;99.90
6114;DHT22;3087;48.392;10.836;2024-01-10T03:14:04;-4.80;99.90
6114;DHT22;3087;48.392;10.836;2024-01-10T03:16:32;-4.90;99.90
6114;DHT22;3087;48.392;10.836;2024-01-10T03:18:58;-4.80;99.90
6114;DHT22;3087;48.392;10.836;2024-01-10T03:21:24;-4.90;99.90
6114;DHT22;3087;48.392;10.836;2024-01-10T03:23:55;-4.80;99.90
6114;DHT22;3087;48.392;10.836;2024-01-10T03:26:20;-4.80;99.90
6114;DHT22;3087;48.392;10.836;2024-01-10T03:28:46;-4.80;99.90
6114;DHT22;3087;48.392;10.836;2024-01-10T03:31:12;-4.80;99.90
6114;DHT22;3087;48.392;10.836;2024-01-10T03:33:37;-4.90;99.90
6114;DHT22;3087;48.392;10.836;2024-01-10T03:36:04;-5.00;99.90
6114;DHT22;3087;48.392;10.836;2024-01-10T03:38:30;-5.00;99.90
6114;DHT22;3087;48.392;10.836;2024-01-10T03:40:55;-5.00;99.90
6114;DHT22;3087;48.392;10.836;2024-01-10T03:43:21;-5.00;99.90
6114;DHT22;3087;48.392;10.836;2024-01-10T03:45:47;-5.00;99.90
6114;DHT22;3087;48.392;10.836;2024-01-10T03:48:12;-5.00;99.90
6114;DHT22;3087;48.392;10.836;2024-01-10T03:50:38;-5.00;99.90
6114;DHT22;3087;48.392;10.836;2024-01-10T03:53:03;-5.00;99.90
6114;DHT22;3087;48.392;10.836;2024-01-10T03:55:29;-5.00;99.90
6114;DHT22;3087;48.392;10.836;2024-01-10T03:57:56;-5.00;99.90
6114;DHT22;3087;48.392;10.836;2024-01-10T04:00:21;-5.00;99.90
6114;DHT22;3087;48.392;10.836;2024-01-10T04:02:47;-5.00;99.90
6114;DHT22;3087;48.392;10.836;2024-01-10T04:05:12;-5.00;99.90
6114;DHT22;3087;48.392;10.836;2024-01-10T04:07:41;-5.00;99.90
6114;DHT22;3087;48.392;10.836;2024-01-10T04:10:07;-5.00;99.90
6114;DHT22;3087;48.392;10.836;2024-01-10T04:12:39;-5.10;99.90
6114;DHT22;3087;48.392;10.836;2024-01-10T04:15:05;-5.00;99.90
6114;DHT22;3087;48.392;10.836;2024-01-10T04:17:30;-5.00;99.90
6114;DHT22;3087;48.392;10.836;2024-01-10T04:19:56;-5.00;99.90
6114;DHT22;3087;48.392;10.836;2024-01-10T04:22:23;-5.00;99.90
6114;DHT22;3087;48.392;10.836;2024-01-10T04:24:49;-4.90;99.90
6114;DHT22;3087;48.392;10.836;2024-01-10T04:27:15;-4.90;99.90
6114;DHT22;3087;48.392;10.836;2024-01-10T04:29:40;-4.80;99.90
6114;DHT22;3087;48.392;10.836;2024-01-10T04:32:06;-4.80;99.90
6114;DHT22;3087;48.392;10.836;2024-01-10T04:34:32;-4.80;99.90
6114;DHT22;3087;48.392;10.836;2024-01-10T04:36:57;-4.80;99.90
6114;DHT22;3087;48.392;10.836;2024-01-10T04:39:23;-4.80;99.90
6114;DHT22;3087;48.392;10.836;2024-01-10T04:41:49;-4.80;99.90
6114;DHT22;3087;48.392;10.836;2024-01-10T04:44:14;-4.80;99.90
6114;DHT22;3087;48.392;10.836;2024-01-10T04:46:40;-4.80;99.90
6114;DHT22;3087;48.392;10.836;2024-01-10T04:49:06;-4.80;99.90
6114;DHT22;3087;48.392;10.836;2024-01-10T04:51:32;-4.70;99.90
6114;DHT22;3087;48.392;10.836;2024-01-10T04:53:58;-4.70;99.90
6114;DHT22;3087;48.392;10.836;2024-01-10T04:56:23;-4.70;99.90
6114;DHT22;3087;48.392;10.836;2024-01-10T04:58:49;-4.60;99.90
6114;DHT22;3087;48.392;10.836;2024-01-10T05:01:14;-4.60;99.90
6114;DHT22;3087;48.392;10.836;2024-01-10T05:03:40;-4.50;99.90
6114;DHT22;3087;48.392;10.836;2024-01-10T05:06:06;-4.50;99.90
6114;DHT22;3087;48.392;10.836;2024-01-10T05:08:31;-4.30;99.90
6114;DHT22;3087;48.392;10.836;2024-01-10T05:10:57;-4.40;99.90
6114;DHT22;3087;48.392;10.836;2024-01-10T05:13:23;-4.40;99.90
6114;DHT22;3087;48.392;10.836;2024-01-10T05:15:48;-4.40;99.90
6114;DHT22;3087;48.392;10.836;2024-01-10T05:18:14;-4.40;99.90
6114;DHT22;3087;48.392;10.836;2024-01-10T05:20:40;-4.40;99.90
6114;DHT22;3087;48.392;10.836;2024-01-10T05:23:06;-4.50;99.90
6114;DHT22;3087;48.392;10.836;2024-01-10T05:25:31;-4.50;99.90
6114;DHT22;3087;48.392;10.836;2024-01-10T05:27:57;-4.50;99.90
6114;DHT22;3087;48.392;10.836;2024-01-10T05:30:24;-4.40;99.90
6114;DHT22;3087;48.392;10.836;2024-01-10T05:32:49;-4.40;99.90
6114;DHT22;3087;48.392;10.836;2024-01-10T05:35:15;-4.40;99.90
6114;DHT22;3087;48.392;10.836;2024-01-10T05:37:41;-4.40;99.90
6114;DHT22;3087;48.392;10.836;2024-01-10T05:40:06;-4.40;99.90
6114;DHT22;3087;48.392;10.836;2024-01-10T05:42:32;-4.40;99.90
6114;DHT22;3087;48.392;10.836;2024-01-10T05:45:01;-4.30;99.90
6114;DHT22;3087;48.392;10.836;2024-01-10T05:47:27;-4.30;99.90
6114;DHT22;3087;48.392;10.836;2024-01-10T05:49:53;-4.30;99.90
6114;DHT22;3087;48.392;10.836;2024-01-10T05:52:19;-6.00;99.90
6114;DHT22;3087;48.392;10.836;2024-01-10T05:54:46;-4.30;99.90
6114;DHT22;3087;48.392;10.836;2024-01-10T05:57:16;-4.20;99.90
6114;DHT22;3087;48.392;10.836;2024-01-10T05:59:42;-4.20;99.90
6114;DHT22;3087;48.392;10.836;2024-01-10T06:02:07;-4.20;99.90
6114;DHT22;3087;48.392;10.836;2024-01-10T06:04:33;-4.20;99.90
6114;DHT22;3087;48.392;10.836;2024-01-10T06:06:59;-4.20;99.90
6114;DHT22;3087;48.392;10.836;2024-01-10T06:09:24;-4.20;99.90
6114;DHT22;3087;48.392;10.836;2024-01-10T06:11:50;-4.10;99.90
6114;DHT22;3087;48.392;10.836;2024-01-10T06:14:16;-4.10;99.90
6114;DHT22;3087;48.392;10.836;2024-01-10T06:16:42;-4.10;99.90
6114;DHT22;3087;48.392;10.836;2024-01-10T06:19:07;-4.10;99.90
6114;DHT22;3087;48.392;10.836;2024-01-10T06:21:33;-4.10;99.90
6114;DHT22;3087;48.392;10.836;2024-01-10T06:23:59;-4.10;99.90
6114;DHT22;3087;48.392;10.836;2024-01-10T06:26:24;-4.10;99.90
6114;DHT22;3087;48.392;10.836;2024-01-10T06:28:50;-4.10;99.90
6114;DHT22;3087;48.392;10.836;2024-01-10T06:31:15;-4.10;99.90
6114;DHT22;3087;48.392;10.836;2024-01-10T06:33:41;-4.10;99.90
6114;DHT22;3087;48.392;10.836;2024-01-10T06:36:07;-4.10;99.90
6114;DHT22;3087;48.392;10.836;2024-01-10T06:38:33;-3.90;99.90
6114;DHT22;3087;48.392;10.836;2024-01-10T06:40:58;-4.10;99.90
6114;DHT22;3087;48.392;10.836;2024-01-10T06:43:24;-4.10;99.90
6114;DHT22;3087;48.392;10.836;2024-01-10T06:45:50;-4.10;99.90
6114;DHT22;3087;48.392;10.836;2024-01-10T06:48:15;-4.10;99.90
6114;DHT22;3087;48.392;10.836;2024-01-10T06:50:41;-4.10;99.90
6114;DHT22;3087;48.392;10.836;2024-01-10T06:53:07;-4.10;99.90
6114;DHT22;3087;48.392;10.836;2024-01-10T06:55:33;-4.10;99.90
6114;DHT22;3087;48.392;10.836;2024-01-10T06:57:59;-4.00;99.90
6114;DHT22;3087;48.392;10.836;2024-01-10T07:00:24;-4.00;99.90
6114;DHT22;3087;48.392;10.836;2024-01-10T07:02:50;-4.10;99.90
6114;DHT22;3087;48.392;10.836;2024-01-10T07:05:15;-4.10;99.90
6114;DHT22;3087;48.392;10.836;2024-01-10T07:07:42;-4.10;99.90
6114;DHT22;3087;48.392;10.836;2024-01-10T07:10:09;-4.10;99.90
6114;DHT22;3087;48.392;10.836;2024-01-10T07:12:34;-4.00;99.90
6114;DHT22;3087;48.392;10.836;2024-01-10T07:15:00;-4.00;99.90
6114;DHT22;3087;48.392;10.836;2024-01-10T07:17:28;-4.00;99.90
6114;DHT22;3087;48.392;10.836;2024-01-10T07:19:54;-4.00;99.90
6114;DHT22;3087;48.392;10.836;2024-01-10T07:22:22;-3.90;99.90
6114;DHT22;3087;48.392;10.836;2024-01-10T07:24:48;-3.90;99.90
6114;DHT22;3087;48.392;10.836;2024-01-10T07:27:14;-3.90;99.90
6114;DHT22;3087;48.392;10.836;2024-01-10T07:29:41;-3.90;99.90
6114;DHT22;3087;48.392;10.836;2024-01-10T07:32:07;-3.80;99.90
6114;DHT22;3087;48.392;10.836;2024-01-10T07:34:37;-3.70;99.90
6114;DHT22;3087;48.392;10.836;2024-01-10T07:37:03;-3.70;99.90
6114;DHT22;3087;48.392;10.836;2024-01-10T07:39:29;-3.60;99.90
6114;DHT22;3087;48.392;10.836;2024-01-10T07:41:55;-3.60;99.90
6114;DHT22;3087;48.392;10.836;2024-01-10T07:44:21;-3.70;99.90
6114;DHT22;3087;48.392;10.836;2024-01-10T07:46:47;-3.10;99.90
6114;DHT22;3087;48.392;10.836;2024-01-10T07:49:12;-3.80;99.90
6114;DHT22;3087;48.392;10.836;2024-01-10T07:51:38;-3.90;99.90
6114;DHT22;3087;48.392;10.836;2024-01-10T07:54:04;-3.90;99.90
6114;DHT22;3087;48.392;10.836;2024-01-10T07:56:30;-3.80;99.90
6114;DHT22;3087;48.392;10.836;2024-01-10T07:58:55;-3.60;99.90
6114;DHT22;3087;48.392;10.836;2024-01-10T08:01:21;-3.60;99.90
6114;DHT22;3087;48.392;10.836;2024-01-10T08:03:47;-3.60;99.90
6114;DHT22;3087;48.392;10.836;2024-01-10T08:06:13;-3.50;99.90
6114;DHT22;3087;48.392;10.836;2024-01-10T08:08:39;-3.40;99.90
6114;DHT22;3087;48.392;10.836;2024-01-10T08:11:04;-3.40;99.90
6114;DHT22;3087;48.392;10.836;2024-01-10T08:13:31;-3.30;99.90
6114;DHT22;3087;48.392;10.836;2024-01-10T08:15:56;-3.40;99.90
6114;DHT22;3087;48.392;10.836;2024-01-10T08:18:23;-3.20;99.90
6114;DHT22;3087;48.392;10.836;2024-01-10T08:20:48;-3.00;99.90
6114;DHT22;3087;48.392;10.836;2024-01-10T08:23:14;-3.00;99.90
6114;DHT22;3087;48.392;10.836;2024-01-10T08:25:40;-3.00;99.90
6114;DHT22;3087;48.392;10.836;2024-01-10T08:28:06;-2.00;99.90
6114;DHT22;3087;48.392;10.836;2024-01-10T08:30:32;-3.00;99.90
6114;DHT22;3087;48.392;10.836;2024-01-10T08:32:58;-2.80;99.90
6114;DHT22;3087;48.392;10.836;2024-01-10T08:35:24;-2.80;99.90
6114;DHT22;3087;48.392;10.836;2024-01-10T08:37:50;-2.80;99.90
6114;DHT22;3087;48.392;10.836;2024-01-10T08:40:15;-2.70;99.90
6114;DHT22;3087;48.392;10.836;2024-01-10T08:42:42;-2.50;99.90
6114;DHT22;3087;48.392;10.836;2024-01-10T08:45:08;-2.50;99.90
6114;DHT22;3087;48.392;10.836;2024-01-10T08:47:35;-2.50;99.90
6114;DHT22;3087;48.392;10.836;2024-01-10T08:50:03;-2.50;99.90
6114;DHT22;3087;48.392;10.836;2024-01-10T08:52:31;-2.40;99.90
6114;DHT22;3087;48.392;10.836;2024-01-10T08:54:56;-2.30;99.90
6114;DHT22;3087;48.392;10.836;2024-01-10T08:57:22;-2.30;99.90
6114;DHT22;3087;48.392;10.836;2024-01-10T08:59:47;-2.40;99.90
6114;DHT22;3087;48.392;10.836;2024-01-10T09:02:14;-2.30;99.90
6114;DHT22;3087;48.392;10.836;2024-01-10T09:04:40;-2.40;99.90
6114;DHT22;3087;48.392;10.836;2024-01-10T09:07:06;-2.30;99.90
6114;DHT22;3087;48.392;10.836;2024-01-10T09:09:32;-2.30;99.90
6114;DHT22;3087;48.392;10.836;2024-01-10T09:11:59;-2.20;99.90
6114;DHT22;3087;48.392;10.836;2024-01-10T09:14:25;-2.10;99.90
6114;DHT22;3087;48.392;10.836;2024-01-10T09:16:50;-2.10;99.90
6114;DHT22;3087;48.392;10.836;2024-01-10T09:19:17;-2.20;99.90
6114;DHT22;3087;48.392;10.836;2024-01-10T09:21:43;-1.90;99.90
6114;DHT22;3087;48.392;10.836;2024-01-10T09:24:11;-1.70;99.90
6114;DHT22;3087;48.392;10.836;2024-01-10T09:26:40;-1.70;99.90
6114;DHT22;3087;48.392;10.836;2024-01-10T09:29:06;-1.60;99.90
6114;DHT22;3087;48.392;10.836;2024-01-10T09:31:31;-1.40;99.90
6114;DHT22;3087;48.392;10.836;2024-01-10T09:33:57;-1.40;99.90
6114;DHT22;3087;48.392;10.836;2024-01-10T09:36:23;-1.40;99.90
6114;DHT22;3087;48.392;10.836;2024-01-10T09:38:48;-1.30;99.90
6114;DHT22;3087;48.392;10.836;2024-01-10T09:41:14;0.30;99.90
6114;DHT22;3087;48.392;10.836;2024-01-10T09:43:41;-1.30;99.90
6114;DHT22;3087;48.392;10.836;2024-01-10T09:46:07;-1.30;99.90
6114;DHT22;3087;48.392;10.836;2024-01-10T09:48:33;-1.20;99.90
6114;DHT22;3087;48.392;10.836;2024-01-10T09:50:59;-1.10;99.90
6114;DHT22;3087;48.392;10.836;2024-01-10T09:53:27;-1.10;99.90
6114;DHT22;3087;48.392;10.836;2024-01-10T09:55:57;-1.20;99.90
6114;DHT22;3087;48.392;10.836;2024-01-10T09:58:26;-1.10;99.90
6114;DHT22;3087;48.392;10.836;2024-01-10T10:00:52;-1.20;99.90
6114;DHT22;3087;48.392;10.836;2024-01-10T10:03:18;-1.30;99.90
6114;DHT22;3087;48.392;10.836;2024-01-10T10:05:44;-0.70;99.90
6114;DHT22;3087;48.392;10.836;2024-01-10T10:08:11;-1.10;99.90
6114;DHT22;3087;48.392;10.836;2024-01-10T10:10:37;-0.90;99.90
6114;DHT22;3087;48.392;10.836;2024-01-10T10:13:09;-0.50;99.90
6114;DHT22;3087;48.392;10.836;2024-01-10T10:15:36;-0.20;99.90
6114;DHT22;3087;48.392;10.836;2024-01-10T10:18:02;0.40;99.90
6114;DHT22;3087;48.392;10.836;2024-01-10T10:20:29;0.60;99.90
6114;DHT22;3087;48.392;10.836;2024-01-10T10:23:03;0.60;99.90
6114;DHT22;3087;48.392;10.836;2024-01-10T10:25:33;0.40;99.90
6114;DHT22;3087;48.392;10.836;2024-01-10T10:28:00;0.20;99.90
6114;DHT22;3087;48.392;10.836;2024-01-10T10:30:27;0.10;99.90
6114;DHT22;3087;48.392;10.836;2024-01-10T10:32:53;0.10;99.90
6114;DHT22;3087;48.392;10.836;2024-01-10T10:35:19;0.20;99.90
6114;DHT22;3087;48.392;10.836;2024-01-10T10:37:49;0.20;99.90
6114;DHT22;3087;48.392;10.836;2024-01-10T10:40:16;0.30;99.90
6114;DHT22;3087;48.392;10.836;2024-01-10T10:42:52;0.30;99.90
6114;DHT22;3087;48.392;10.836;2024-01-10T10:45:20;0.40;99.90
6114;DHT22;3087;48.392;10.836;2024-01-10T10:47:58;0.40;99.90
6114;DHT22;3087;48.392;10.836;2024-01-10T10:50:28;0.40;99.90
6114;DHT22;3087;48.392;10.836;2024-01-10T10:52:55;0.60;99.90
6114;DHT22;3087;48.392;10.836;2024-01-10T10:55:22;1.00;99.90
6114;DHT22;3087;48.392;10.836;2024-01-10T10:57:49;1.60;99.90
6114;DHT22;3087;48.392;10.836;2024-01-10T11:00:20;2.00;99.90
6114;DHT22;3087;48.392;10.836;2024-01-10T11:02:47;2.00;99.20
6114;DHT22;3087;48.392;10.836;2024-01-10T11:05:15;1.80;99.20
6114;DHT22;3087;48.392;10.836;2024-01-10T11:07:43;1.90;99.40
6114;DHT22;3087;48.392;10.836;2024-01-10T11:10:27;2.50;99.50
6114;DHT22;3087;48.392;10.836;2024-01-10T11:16:04;4.50;97.20
6114;DHT22;3087;48.392;10.836;2024-01-10T11:24:39;4.70;95.30
6114;DHT22;3087;48.392;10.836;2024-01-10T11:29:33;3.50;95.00
6114;DHT22;3087;48.392;10.836;2024-01-10T11:31:58;3.30;95.60
6114;DHT22;3087;48.392;10.836;2024-01-10T11:34:24;3.30;96.20
6114;DHT22;3087;48.392;10.836;2024-01-10T11:37:11;3.60;96.00
6114;DHT22;3087;48.392;10.836;2024-01-10T11:39:41;3.70;95.80
6114;DHT22;3087;48.392;10.836;2024-01-10T11:42:08;3.60;95.60
6114;DHT22;3087;48.392;10.836;2024-01-10T11:44:45;3.80;95.40
6114;DHT22;3087;48.392;10.836;2024-01-10T11:47:13;3.60;95.20
6114;DHT22;3087;48.392;10.836;2024-01-10T11:49:40;3.70;95.40
6114;DHT22;3087;48.392;10.836;2024-01-10T11:52:06;3.50;95.10
6114;DHT22;3087;48.392;10.836;2024-01-10T11:54:42;3.50;95.10
6114;DHT22;3087;48.392;10.836;2024-01-10T11:57:19;3.60;95.40
6114;DHT22;3087;48.392;10.836;2024-01-10T11:59:45;3.50;95.20
6114;DHT22;3087;48.392;10.836;2024-01-10T12:02:14;3.50;95.10
6114;DHT22;3087;48.392;10.836;2024-01-10T12:04:40;3.50;95.60
6114;DHT22;3087;48.392;10.836;2024-01-10T12:07:07;3.20;95.60
6114;DHT22;3087;48.392;10.836;2024-01-10T12:09:34;2.90;96.10
6114;DHT22;3087;48.392;10.836;2024-01-10T12:12:00;3.80;96.30
6114;DHT22;3087;48.392;10.836;2024-01-10T12:14:26;2.70;96.50
6114;DHT22;3087;48.392;10.836;2024-01-10T12:16:52;2.70;96.30
6114;DHT22;3087;48.392;10.836;2024-01-10T12:19:18;2.50;96.30
6114;DHT22;3087;48.392;10.836;2024-01-10T12:21:44;2.50;96.20
6114;DHT22;3087;48.392;10.836;2024-01-10T12:24:09;2.10;96.40
6114;DHT22;3087;48.392;10.836;2024-01-10T12:26:35;2.00;97.00
6114;DHT22;3087;48.392;10.836;2024-01-10T12:29:03;3.60;97.80
6114;DHT22;3087;48.392;10.836;2024-01-10T12:31:31;2.00;97.60
6114;DHT22;3087;48.392;10.836;2024-01-10T12:33:58;2.00;97.60
6114;DHT22;3087;48.392;10.836;2024-01-10T12:36:24;2.20;97.40
6114;DHT22;3087;48.392;10.836;2024-01-10T12:38:50;2.20;97.60
6114;DHT22;3087;48.392;10.836;2024-01-10T12:41:17;2.40;97.20
6114;DHT22;3087;48.392;10.836;2024-01-10T12:43:43;2.50;96.80
6114;DHT22;3087;48.392;10.836;2024-01-10T12:46:11;2.60;97.30
6114;DHT22;3087;48.392;10.836;2024-01-10T12:48:40;3.00;97.10
6114;DHT22;3087;48.392;10.836;2024-01-10T12:51:10;3.30;96.70
6114;DHT22;3087;48.392;10.836;2024-01-10T12:53:42;3.80;96.80
6114;DHT22;3087;48.392;10.836;2024-01-10T12:56:09;2.90;96.40
6114;DHT22;3087;48.392;10.836;2024-01-10T12:58:38;2.60;96.90
6114;DHT22;3087;48.392;10.836;2024-01-10T13:01:03;2.40;97.00
6114;DHT22;3087;48.392;10.836;2024-01-10T13:03:29;2.50;97.20
6114;DHT22;3087;48.392;10.836;2024-01-10T13:05:55;2.40;97.10
6114;DHT22;3087;48.392;10.836;2024-01-10T13:08:21;2.10;96.80
6114;DHT22;3087;48.392;10.836;2024-01-10T13:10:47;2.10;97.60
6114;DHT22;3087;48.392;10.836;2024-01-10T13:13:13;2.00;97.50
6114;DHT22;3087;48.392;10.836;2024-01-10T13:15:39;1.80;97.30
6114;DHT22;3087;48.392;10.836;2024-01-10T13:18:05;1.60;97.80
6114;DHT22;3087;48.392;10.836;2024-01-10T13:20:32;1.50;98.40
6114;DHT22;3087;48.392;10.836;2024-01-10T13:22:57;1.50;98.70
6114;DHT22;3087;48.392;10.836;2024-01-10T13:25:23;1.50;98.50
6114;DHT22;3087;48.392;10.836;2024-01-10T13:27:52;3.60;99.50
6114;DHT22;3087;48.392;10.836;2024-01-10T13:30:18;2.60;99.00
6114;DHT22;3087;48.392;10.836;2024-01-10T13:32:47;1.40;98.40
6114;DHT22;3087;48.392;10.836;2024-01-10T13:35:16;1.40;98.70
6114;DHT22;3087;48.392;10.836;2024-01-10T13:37:42;1.30;98.60
6114;DHT22;3087;48.392;10.836;2024-01-10T13:40:09;1.30;99.00
6114;DHT22;3087;48.392;10.836;2024-01-10T13:42:36;1.30;99.20
6114;DHT22;3087;48.392;10.836;2024-01-10T13:45:05;1.40;99.30
6114;DHT22;3087;48.392;10.836;2024-01-10T13:47:32;1.40;99.20
6114;DHT22;3087;48.392;10.836;2024-01-10T13:49:59;1.40;99.20
6114;DHT22;3087;48.392;10.836;2024-01-10T13:52:25;1.30;99.30
6114;DHT22;3087;48.392;10.836;2024-01-10T13:54:51;1.20;99.30
6114;DHT22;3087;48.392;10.836;2024-01-10T13:57:17;1.10;99.70
6114;DHT22;3087;48.392;10.836;2024-01-10T13:59:43;1.00;99.70
6114;DHT22;3087;48.392;10.836;2024-01-10T14:02:09;0.80;99.80
6114;DHT22;3087;48.392;10.836;2024-01-10T14:04:35;0.80;99.90
6114;DHT22;3087;48.392;10.836;2024-01-10T14:07:00;0.80;99.90
6114;DHT22;3087;48.392;10.836;2024-01-10T14:09:26;0.80;99.90
6114;DHT22;3087;48.392;10.836;2024-01-10T14:11:52;0.70;99.90
6114;DHT22;3087;48.392;10.836;2024-01-10T14:14:18;0.50;99.90
6114;DHT22;3087;48.392;10.836;2024-01-10T14:16:43;0.40;99.90
6114;DHT22;3087;48.392;10.836;2024-01-10T14:19:09;0.60;99.90
6114;DHT22;3087;48.392;10.836;2024-01-10T14:21:35;0.60;99.90
6114;DHT22;3087;48.392;10.836;2024-01-10T14:24:00;0.60;99.90
6114;DHT22;3087;48.392;10.836;2024-01-10T14:26:27;0.50;99.90
6114;DHT22;3087;48.392;10.836;2024-01-10T14:28:53;0.40;99.90
6114;DHT22;3087;48.392;10.836;2024-01-10T14:31:21;0.30;99.90
6114;DHT22;3087;48.392;10.836;2024-01-10T14:33:47;0.30;99.90
6114;DHT22;3087;48.392;10.836;2024-01-10T14:36:14;0.30;99.90
6114;DHT22;3087;48.392;10.836;2024-01-10T14:38:40;0.20;99.90
6114;DHT22;3087;48.392;10.836;2024-01-10T14:41:07;0.20;99.90
6114;DHT22;3087;48.392;10.836;2024-01-10T14:43:33;0.30;99.90
6114;DHT22;3087;48.392;10.836;2024-01-10T14:45:59;0.20;99.90
6114;DHT22;3087;48.392;10.836;2024-01-10T14:48:24;0.10;99.90
6114;DHT22;3087;48.392;10.836;2024-01-10T14:50:51;0.20;99.90
6114;DHT22;3087;48.392;10.836;2024-01-10T14:53:17;0.20;99.90
6114;DHT22;3087;48.392;10.836;2024-01-10T14:55:43;0.00;99.90
6114;DHT22;3087;48.392;10.836;2024-01-10T14:58:08;0.00;99.90
6114;DHT22;3087;48.392;10.836;2024-01-10T15:00:34;-0.10;99.90
6114;DHT22;3087;48.392;10.836;2024-01-10T15:02:59;-0.10;99.90
6114;DHT22;3087;48.392;10.836;2024-01-10T15:05:25;1.00;99.90
6114;DHT22;3087;48.392;10.836;2024-01-10T15:07:52;-0.30;99.90
6114;DHT22;3087;48.392;10.836;2024-01-10T15:10:17;-0.20;99.90
6114;DHT22;3087;48.392;10.836;2024-01-10T15:12:44;-0.20;99.90
6114;DHT22;3087;48.392;10.836;2024-01-10T15:15:11;-0.20;99.90
6114;DHT22;3087;48.392;10.836;2024-01-10T15:17:36;-0.20;99.90
6114;DHT22;3087;48.392;10.836;2024-01-10T15:20:03;-0.20;99.90
6114;DHT22;3087;48.392;10.836;2024-01-10T15:22:28;-0.30;99.90
6114;DHT22;3087;48.392;10.836;2024-01-10T15:24:54;-0.30;99.90
6114;DHT22;3087;48.392;10.836;2024-01-10T15:27:20;-0.40;99.90
6114;DHT22;3087;48.392;10.836;2024-01-10T15:29:45;-0.40;99.90
6114;DHT22;3087;48.392;10.836;2024-01-10T15:32:11;-0.60;99.90
6114;DHT22;3087;48.392;10.836;2024-01-10T15:34:37;-0.70;99.90
6114;DHT22;3087;48.392;10.836;2024-01-10T15:37:04;-0.70;99.90
6114;DHT22;3087;48.392;10.836;2024-01-10T15:39:29;-0.80;99.90
6114;DHT22;3087;48.392;10.836;2024-01-10T15:41:55;0.50;99.90
6114;DHT22;3087;48.392;10.836;2024-01-10T15:47:43;-0.70;99.90
6114;DHT22;3087;48.392;10.836;2024-01-10T15:50:09;-0.80;99.90
6114;DHT22;3087;48.392;10.836;2024-01-10T15:52:35;-0.90;99.90
6114;DHT22;3087;48.392;10.836;2024-01-10T15:55:07;-1.00;99.90
6114;DHT22;3087;48.392;10.836;2024-01-10T15:57:34;-1.00;99.90
6114;DHT22;3087;48.392;10.836;2024-01-10T15:59:59;-2.60;99.90